Time;durP1;ratioP1;P1;durP2;ratioP2;P2;SDS_P1;SDS_P2;PMS_P1;PMS_P2;Temp;Humidity;BMP_temperature;BMP_pressure;BME280_temperature;BME280_humidity;BME280_pressure;Samples;Min_cycle;Max_cycle;Signal;HPM_P1;HPM_P2
2023/03/05 00:01:36;;;;;;;47.30;10.43;;;1.50;99.90;;;;;;4995675;28;20188;-67
2023/03/05 00:04:03;;;;;;;43.93;12.57;;;1.40;99.90;;;;;;4998897;28;20460;-68
2023/03/05 00:06:30;;;;;;;37.17;12.40;;;1.50;99.90;;;;;;4996498;28;20806;-68
2023/03/05 00:08:57;;;;;;;36.07;14.17;;;1.50;99.90;;;;;;4997429;28;20836;-68
2023/03/05 00:11:24;;;;;;;26.07;11.93;;;1.40;99.90;;;;;;4996327;28;20419;-68
2023/03/05 00:13:53;;;;;;;30.37;11.73;;;1.40;99.90;;;;;;4998556;28;20422;-67
2023/03/05 00:16:20;;;;;;;36.47;14.70;;;1.40;99.90;;;;;;4996021;28;20479;-68
2023/03/05 00:18:46;;;;;;;41.90;13.97;;;1.40;99.90;;;;;;4999598;28;20488;-68
2023/03/05 00:21:21;;;;;;;32.40;13.33;;;1.40;99.90;;;;;;4994140;28;20442;-68
2023/03/05 00:23:49;;;;;;;29.43;12.50;;;1.40;99.90;;;;;;4997006;28;20427;-68
2023/03/05 00:26:15;;;;;;;32.90;14.93;;;1.50;99.90;;;;;;4995023;28;20478;-68
2023/03/05 00:28:41;;;;;;;23.73;11.00;;;1.50;99.90;;;;;;5002072;28;20853;-68
2023/03/05 00:31:07;;;;;;;38.00;15.60;;;1.40;99.90;;;;;;4995457;28;20498;-68
2023/03/05 00:33:32;;;;;;;37.33;13.43;;;1.40;99.90;;;;;;4993079;28;20188;-68
2023/03/05 00:36:01;;;;;;;29.20;13.63;;;1.40;99.90;;;;;;4996392;28;20266;-68
2023/03/05 00:38:26;;;;;;;31.87;14.20;;;1.40;99.90;;;;;;4996519;28;20250;-67
2023/03/05 00:40:52;;;;;;;40.10;15.30;;;1.40;99.90;;;;;;4992640;28;20446;-68
2023/03/05 00:43:18;;;;;;;33.33;14.10;;;1.40;99.90;;;;;;4998332;28;20187;-68
2023/03/05 00:45:43;;;;;;;43.40;13.97;;;1.30;99.90;;;;;;4996407;28;20318;-68
2023/03/05 00:48:09;;;;;;;38.33;17.47;;;1.30;99.90;;;;;;4995639;28;20178;-68
2023/03/05 00:50:34;;;;;;;35.57;14.90;;;1.30;99.90;;;;;;4996538;28;20176;-68
2023/03/05 00:53:00;;;;;;;47.90;16.17;;;1.40;99.90;;;;;;4993017;28;20176;-68
2023/03/05 00:55:26;;;;;;;31.73;13.90;;;1.30;99.90;;;;;;4976031;28;20187;-68
2023/03/05 00:57:51;;;;;;;44.73;13.53;;;1.30;99.90;;;;;;4998562;28;20187;-68
2023/03/05 01:00:17;;;;;;;38.17;15.23;;;1.30;99.90;;;;;;4992939;28;20211;-67
2023/03/05 01:02:43;;;;;;;31.97;14.57;;;1.30;99.90;;;;;;4998196;28;20191;-68
2023/03/05 01:05:13;;;;;;;26.20;11.97;;;1.30;99.90;;;;;;4993911;28;20287;-67
2023/03/05 01:07:39;;;;;;;46.17;12.97;;;1.30;99.90;;;;;;4999201;28;20191;-68
2023/03/05 01:10:06;;;;;;;32.53;14.47;;;1.20;99.90;;;;;;4994029;28;20419;-68
2023/03/05 01:12:31;;;;;;;38.80;14.20;;;1.30;99.90;;;;;;4996308;28;20506;-68
2023/03/05 01:14:57;;;;;;;32.90;12.97;;;1.20;99.90;;;;;;4996062;28;20550;-68
2023/03/05 01:17:23;;;;;;;39.93;16.00;;;1.20;99.90;;;;;;4996644;28;20191;-67
2023/03/05 01:19:48;;;;;;;36.77;14.57;;;1.20;99.90;;;;;;4995673;28;20187;-66
2023/03/05 01:22:14;;;;;;;38.00;16.37;;;1.20;99.90;;;;;;4997308;28;20263;-66
2023/03/05 01:24:39;;;;;;;34.73;12.10;;;1.20;99.90;;;;;;4991450;28;20196;-66
2023/03/05 01:27:05;;;;;;;48.97;14.67;;;1.20;99.90;;;;;;4996707;28;20207;-66
2023/03/05 01:29:31;;;;;;;28.10;12.70;;;1.30;99.90;;;;;;4995524;28;20532;-66
2023/03/05 01:31:56;;;;;;;37.67;13.43;;;1.30;99.90;;;;;;4996077;28;20573;-66
2023/03/05 01:34:22;;;;;;;36.70;15.17;;;1.30;99.90;;;;;;4992434;28;20191;-67
2023/03/05 01:36:50;;;;;;;42.73;14.00;;;1.30;99.90;;;;;;4999558;28;20175;-66
2023/03/05 01:39:16;;;;;;;36.00;13.90;;;1.30;99.90;;;;;;4993453;28;20188;-66
2023/03/05 01:41:42;;;;;;;32.70;15.00;;;1.30;99.90;;;;;;4994734;28;20431;-66
2023/03/05 01:44:21;;;;;;;36.77;14.03;;;1.30;99.90;;;;;;4993979;28;20183;-66
2023/03/05 01:46:46;;;;;;;37.57;14.30;;;1.30;99.90;;;;;;4989252;28;20203;-66
2023/03/05 01:49:27;;;;;;;31.67;14.77;;;1.30;99.90;;;;;;4996731;28;21035;-69
2023/03/05 01:52:16;;;;;;;33.50;10.63;;;1.30;99.90;;;;;;4994497;28;20172;-66
2023/03/05 01:54:57;;;;;;;31.87;15.03;;;1.30;99.90;;;;;;4995564;28;20417;-67
2023/03/05 01:57:34;;;;;;;33.67;13.40;;;1.30;99.90;;;;;;4996295;28;20411;-66
2023/03/05 02:00:08;;;;;;;39.37;14.43;;;1.30;99.90;;;;;;4993843;28;20435;-66
2023/03/05 02:02:33;;;;;;;49.37;11.80;;;1.30;99.90;;;;;;4997981;28;20429;-66
2023/03/05 02:05:09;;;;;;;47.13;13.40;;;1.30;99.90;;;;;;4993929;28;20415;-66
2023/03/05 02:07:36;;;;;;;29.30;12.60;;;1.30;99.90;;;;;;4995672;28;20175;-66
2023/03/05 02:10:24;;;;;;;32.17;13.20;;;1.30;99.90;;;;;;4994566;28;20419;-66
2023/03/05 02:12:52;;;;;;;24.57;13.23;;;1.30;99.90;;;;;;4990155;28;20398;-66
2023/03/05 02:15:17;;;;;;;27.53;14.63;;;1.30;99.90;;;;;;4994924;28;20831;-66
2023/03/05 02:17:43;;;;;;;39.83;14.97;;;1.30;99.90;;;;;;4993120;28;20446;-68
2023/03/05 02:20:19;;;;;;;30.80;12.73;;;1.30;99.90;;;;;;4995454;28;20187;-66
2023/03/05 02:22:44;;;;;;;27.87;12.00;;;1.30;99.90;;;;;;4994236;28;20411;-66
2023/03/05 02:25:18;;;;;;;22.47;11.80;;;1.30;99.90;;;;;;4992227;28;20418;-66
2023/03/05 02:27:55;;;;;;;35.90;13.13;;;1.30;99.90;;;;;;4988848;28;20699;-66
2023/03/05 02:30:21;;;;;;;44.13;15.20;;;1.30;99.90;;;;;;4996588;28;20456;-66
2023/03/05 02:32:47;;;;;;;35.67;14.97;;;1.30;99.90;;;;;;4992707;28;20430;-66
2023/03/05 02:35:12;;;;;;;32.97;14.47;;;1.30;99.90;;;;;;4994614;28;20194;-66
2023/03/05 02:37:38;;;;;;;34.67;13.10;;;1.30;99.90;;;;;;4994945;28;20194;-66
2023/03/05 02:40:04;;;;;;;30.63;12.77;;;1.30;99.90;;;;;;4995506;28;20648;-66
2023/03/05 02:42:32;;;;;;;33.87;13.63;;;1.30;99.90;;;;;;4994193;28;20188;-66
2023/03/05 02:44:59;;;;;;;35.40;12.67;;;1.40;99.90;;;;;;4997447;28;20422;-66
2023/03/05 02:47:26;;;;;;;27.23;11.77;;;1.40;99.90;;;;;;4983760;28;20900;-66
2023/03/05 02:49:52;;;;;;;42.80;14.80;;;1.40;99.90;;;;;;4998384;28;20414;-66
2023/03/05 02:52:17;;;;;;;33.70;14.57;;;1.40;99.90;;;;;;4992372;28;20419;-66
2023/03/05 02:54:43;;;;;;;41.77;13.40;;;1.40;99.90;;;;;;4991929;28;20448;-66
2023/03/05 02:57:09;;;;;;;30.67;15.43;;;1.40;99.90;;;;;;4993352;28;20202;-66
2023/03/05 02:59:34;;;;;;;25.63;12.10;;;1.30;99.90;;;;;;4995926;28;20243;-66
2023/03/05 03:02:00;;;;;;;33.27;13.63;;;1.30;99.90;;;;;;4993007;28;20258;-66
2023/03/05 03:04:25;;;;;;;35.93;15.20;;;1.30;99.90;;;;;;4997499;28;20195;-66
2023/03/05 03:06:51;;;;;;;32.17;15.00;;;1.30;99.90;;;;;;4995085;28;20219;-67
2023/03/05 03:09:17;;;;;;;37.97;12.83;;;1.30;99.90;;;;;;4994316;28;20636;-66
2023/03/05 03:11:42;;;;;;;39.93;13.67;;;1.30;99.90;;;;;;4994577;28;20199;-66
2023/03/05 03:14:08;;;;;;;48.27;13.80;;;1.30;99.90;;;;;;4996128;28;20183;-66
2023/03/05 03:16:34;;;;;;;26.57;11.80;;;1.30;99.90;;;;;;4994278;28;20772;-66
2023/03/05 03:18:59;;;;;;;31.40;12.67;;;1.30;99.90;;;;;;4997486;28;20274;-66
2023/03/05 03:21:25;;;;;;;38.63;12.13;;;1.30;99.90;;;;;;4990435;28;20427;-66
2023/03/05 03:23:51;;;;;;;39.87;16.07;;;1.30;99.90;;;;;;4993700;28;20659;-66
2023/03/05 03:26:17;;;;;;;32.13;12.43;;;1.30;99.90;;;;;;4991219;28;20481;-68
2023/03/05 03:28:43;;;;;;;27.30;11.47;;;1.30;99.90;;;;;;4998236;28;20418;-67
2023/03/05 03:31:09;;;;;;;41.40;16.00;;;1.30;99.90;;;;;;4992492;28;20935;-67
2023/03/05 03:33:35;;;;;;;46.33;13.30;;;1.30;99.90;;;;;;4993714;28;20184;-67
2023/03/05 03:36:00;;;;;;;44.20;13.17;;;1.30;99.90;;;;;;4993562;28;20590;-67
2023/03/05 03:38:26;;;;;;;34.50;13.67;;;1.40;99.90;;;;;;4995595;28;20187;-67
2023/03/05 03:40:52;;;;;;;37.00;13.90;;;1.40;99.90;;;;;;4993268;28;20543;-67
2023/03/05 03:43:17;;;;;;;31.63;12.33;;;1.40;99.90;;;;;;4996152;28;20229;-67
2023/03/05 03:45:43;;;;;;;36.00;13.67;;;1.40;99.90;;;;;;4995084;28;20234;-67
2023/03/05 03:48:10;;;;;;;47.80;12.90;;;1.40;99.90;;;;;;4996849;28;20183;-67
2023/03/05 03:50:42;;;;;;;39.37;12.00;;;1.40;99.90;;;;;;4997031;28;20192;-67
2023/03/05 03:53:13;;;;;;;33.20;13.90;;;1.40;99.90;;;;;;4997386;28;20419;-67
2023/03/05 03:55:39;;;;;;;23.00;11.10;;;1.40;99.90;;;;;;4994049;28;20434;-67
2023/03/05 03:58:04;;;;;;;35.43;12.70;;;1.40;99.90;;;;;;4995974;28;20431;-67
2023/03/05 04:00:30;;;;;;;44.80;11.73;;;1.40;99.90;;;;;;4994389;28;20464;-67
2023/03/05 04:02:56;;;;;;;28.53;11.70;;;1.50;99.90;;;;;;4994699;28;20179;-67
2023/03/05 04:05:21;;;;;;;37.00;12.80;;;1.40;99.90;;;;;;4994959;28;20204;-67
2023/03/05 04:07:47;;;;;;;29.33;13.00;;;1.40;99.90;;;;;;4995411;28;20186;-67
2023/03/05 04:10:12;;;;;;;30.10;13.70;;;1.40;99.90;;;;;;4995210;28;20188;-67
2023/03/05 04:12:38;;;;;;;37.63;14.93;;;1.40;99.90;;;;;;4995574;28;20188;-67
2023/03/05 04:15:06;;;;;;;32.97;13.27;;;1.40;99.90;;;;;;4995328;28;20292;-67
2023/03/05 04:17:32;;;;;;;32.83;13.13;;;1.40;99.90;;;;;;4997001;28;20187;-67
2023/03/05 04:19:58;;;;;;;27.40;12.43;;;1.40;99.90;;;;;;4995595;28;20774;-67
2023/03/05 04:22:23;;;;;;;31.97;10.60;;;1.40;99.90;;;;;;4997140;28;20184;-67
2023/03/05 04:24:49;;;;;;;38.13;13.40;;;1.40;99.90;;;;;;4992545;28;20184;-67
2023/03/05 04:27:14;;;;;;;30.00;13.10;;;1.40;99.90;;;;;;4997414;28;20224;-67
2023/03/05 04:29:40;;;;;;;27.07;12.57;;;1.40;99.90;;;;;;4996712;28;20542;-67
2023/03/05 04:32:06;;;;;;;31.83;12.50;;;1.40;99.90;;;;;;4996687;28;20538;-67
2023/03/05 04:34:32;;;;;;;30.40;11.13;;;1.40;99.90;;;;;;4993353;28;20217;-67
2023/03/05 04:36:58;;;;;;;38.80;13.37;;;1.30;99.90;;;;;;4999057;28;20431;-67
2023/03/05 04:39:24;;;;;;;23.77;10.57;;;1.40;99.90;;;;;;4993898;28;20184;-67
2023/03/05 04:41:49;;;;;;;33.83;13.30;;;1.40;99.90;;;;;;4994851;28;20188;-67
2023/03/05 04:44:16;;;;;;;34.07;11.80;;;1.40;99.90;;;;;;4995042;28;20434;-67
2023/03/05 04:46:42;;;;;;;27.93;12.43;;;1.40;99.90;;;;;;4995830;28;20208;-67
2023/03/05 04:49:08;;;;;;;30.50;12.20;;;1.40;99.90;;;;;;4995667;28;20419;-67
2023/03/05 04:51:33;;;;;;;26.47;10.60;;;1.40;99.90;;;;;;4988597;28;20963;-67
2023/03/05 04:53:59;;;;;;;24.17;10.73;;;1.50;99.90;;;;;;4995647;28;20626;-67
2023/03/05 04:56:25;;;;;;;31.53;10.77;;;1.40;99.90;;;;;;4993315;28;20191;-66
2023/03/05 04:58:51;;;;;;;25.93;11.50;;;1.40;99.90;;;;;;4995607;28;20217;-66
2023/03/05 05:01:16;;;;;;;27.63;11.67;;;1.40;99.90;;;;;;4995668;28;20245;-66
2023/03/05 05:03:42;;;;;;;39.87;11.87;;;1.40;99.90;;;;;;4994976;28;20190;-65
2023/03/05 05:06:08;;;;;;;42.53;14.53;;;1.40;99.90;;;;;;4997059;28;20668;-66
2023/03/05 05:08:33;;;;;;;28.40;11.60;;;1.40;99.90;;;;;;4995488;28;20188;-66
2023/03/05 05:11:01;;;;;;;36.73;12.60;;;1.40;99.90;;;;;;4999373;28;20266;-65
2023/03/05 05:13:27;;;;;;;27.37;13.20;;;1.40;99.90;;;;;;4986296;28;20196;-66
2023/03/05 05:15:53;;;;;;;25.87;10.27;;;1.40;99.90;;;;;;4999873;28;20490;-65
2023/03/05 05:18:19;;;;;;;26.03;11.13;;;1.30;99.90;;;;;;4992494;28;20919;-66
2023/03/05 05:20:45;;;;;;;25.00;11.57;;;1.30;99.90;;;;;;4998601;28;20200;-66
2023/03/05 05:23:10;;;;;;;18.93;9.03;;;1.40;99.90;;;;;;4993908;28;20466;-66
2023/03/05 05:25:36;;;;;;;33.03;10.17;;;1.40;99.90;;;;;;4989308;28;20215;-66
2023/03/05 05:28:02;;;;;;;27.20;11.70;;;1.40;99.90;;;;;;4995643;28;20271;-66
2023/03/05 05:30:27;;;;;;;26.00;10.80;;;1.40;99.90;;;;;;4989845;28;20230;-66
2023/03/05 05:32:53;;;;;;;24.80;9.87;;;1.40;99.90;;;;;;4993449;28;20579;-67
2023/03/05 05:35:18;;;;;;;22.23;10.27;;;1.40;99.90;;;;;;4989983;28;20199;-66
2023/03/05 05:37:44;;;;;;;30.40;11.50;;;1.40;99.90;;;;;;4989646;28;20605;-66
2023/03/05 05:40:10;;;;;;;20.40;9.87;;;1.40;99.90;;;;;;4996181;28;20179;-66
2023/03/05 05:42:36;;;;;;;26.33;10.40;;;1.40;99.90;;;;;;4985467;28;20187;-66
2023/03/05 05:45:02;;;;;;;22.40;9.60;;;1.40;99.90;;;;;;4997945;28;20414;-69
2023/03/05 05:47:29;;;;;;;23.33;10.20;;;1.40;99.90;;;;;;4989113;28;20211;-66
2023/03/05 05:49:55;;;;;;;25.37;8.80;;;1.40;99.90;;;;;;4999184;28;20418;-66
2023/03/05 05:52:22;;;;;;;32.93;10.43;;;1.50;99.90;;;;;;4993410;28;20943;-66
2023/03/05 05:54:47;;;;;;;31.80;11.37;;;1.50;99.90;;;;;;4995739;28;20450;-66
2023/03/05 05:57:13;;;;;;;26.87;11.07;;;1.50;99.90;;;;;;4993396;28;20246;-66
2023/03/05 05:59:39;;;;;;;30.80;11.07;;;1.50;99.90;;;;;;4990546;28;20283;-66
2023/03/05 06:02:06;;;;;;;25.50;10.70;;;1.50;99.90;;;;;;4991702;28;20642;-66
2023/03/05 06:04:33;;;;;;;22.97;10.07;;;1.50;99.90;;;;;;4992416;28;20425;-66
2023/03/05 06:06:59;;;;;;;35.20;11.50;;;1.50;99.90;;;;;;4995402;28;20930;-66
2023/03/05 06:09:25;;;;;;;28.17;10.60;;;1.40;99.90;;;;;;4989388;28;20415;-66
2023/03/05 06:11:51;;;;;;;26.50;11.67;;;1.40;99.90;;;;;;4995203;28;20921;-66
2023/03/05 06:14:16;;;;;;;23.83;11.20;;;1.40;99.90;;;;;;4996257;28;20414;-66
2023/03/05 06:16:42;;;;;;;28.13;13.50;;;1.40;99.90;;;;;;4994872;28;20183;-66
2023/03/05 06:19:11;;;;;;;30.43;13.03;;;1.40;99.90;;;;;;4997080;28;20538;-66
2023/03/05 06:21:36;;;;;;;26.83;11.80;;;1.40;99.90;;;;;;4990996;28;20180;-66
2023/03/05 06:24:02;;;;;;;33.53;13.30;;;1.40;99.90;;;;;;4993644;28;20466;-66
2023/03/05 06:26:28;;;;;;;21.17;9.67;;;1.40;99.90;;;;;;4992108;28;20234;-66
2023/03/05 06:28:54;;;;;;;29.67;10.77;;;1.40;99.90;;;;;;4997884;28;20283;-66
2023/03/05 06:31:21;;;;;;;37.13;11.53;;;1.50;99.90;;;;;;4993290;28;20561;-66
2023/03/05 06:33:48;;;;;;;24.03;11.30;;;1.40;99.90;;;;;;4993946;28;20963;-66
2023/03/05 06:36:16;;;;;;;25.30;12.67;;;1.40;99.90;;;;;;4994428;28;20467;-66
2023/03/05 06:38:42;;;;;;;24.47;10.17;;;1.40;99.90;;;;;;4995779;28;20419;-66
2023/03/05 06:41:11;;;;;;;31.90;12.20;;;1.50;99.90;;;;;;4995307;28;20433;-67
2023/03/05 06:43:39;;;;;;;31.87;10.43;;;1.50;99.90;;;;;;4996076;28;20234;-67
2023/03/05 06:46:08;;;;;;;28.10;10.80;;;1.50;99.90;;;;;;4994456;28;20481;-67
2023/03/05 06:48:34;;;;;;;30.43;11.50;;;1.40;99.90;;;;;;4994639;28;20415;-67
2023/03/05 06:50:59;;;;;;;20.23;10.07;;;1.50;99.90;;;;;;4994925;28;20423;-68
2023/03/05 06:53:25;;;;;;;24.07;9.47;;;1.50;99.90;;;;;;4994127;28;20652;-68
2023/03/05 06:55:52;;;;;;;18.50;9.67;;;1.50;99.90;;;;;;4993649;28;20549;-68
2023/03/05 06:58:18;;;;;;;26.33;10.50;;;1.50;99.90;;;;;;4996041;28;20188;-68
2023/03/05 07:00:44;;;;;;;30.83;12.00;;;1.50;99.90;;;;;;4994140;28;20451;-66
2023/03/05 07:03:10;;;;;;;27.57;11.90;;;1.60;99.90;;;;;;4995677;28;20434;-66
2023/03/05 07:05:40;;;;;;;29.77;10.13;;;1.60;99.90;;;;;;4994222;28;20311;-66
2023/03/05 07:08:06;;;;;;;26.83;9.87;;;1.60;99.90;;;;;;4992907;28;20419;-66
2023/03/05 07:10:36;;;;;;;29.53;9.27;;;1.60;99.90;;;;;;4997054;28;20418;-66
2023/03/05 07:13:01;;;;;;;19.40;10.17;;;1.70;99.90;;;;;;4993573;28;20211;-67
2023/03/05 07:15:27;;;;;;;24.87;9.30;;;1.70;99.90;;;;;;4999048;28;20465;-67
2023/03/05 07:17:52;;;;;;;23.80;11.03;;;1.70;99.90;;;;;;4997397;28;20548;-67
2023/03/05 07:20:18;;;;;;;29.27;11.37;;;1.70;99.90;;;;;;4996225;28;20437;-69
2023/03/05 07:22:44;;;;;;;36.67;12.03;;;1.70;99.90;;;;;;4997230;28;20234;-67
2023/03/05 07:25:09;;;;;;;30.47;10.80;;;1.70;99.90;;;;;;4992863;28;20221;-67
2023/03/05 07:27:37;;;;;;;21.70;9.67;;;1.80;99.90;;;;;;4993980;28;20567;-66
2023/03/05 07:30:03;;;;;;;26.57;10.93;;;1.80;99.90;;;;;;5005137;28;20257;-67
2023/03/05 07:32:29;;;;;;;26.93;10.60;;;1.80;99.90;;;;;;4997455;28;20418;-67
2023/03/05 07:34:54;;;;;;;30.13;10.47;;;1.90;99.90;;;;;;4998372;28;20786;-67
2023/03/05 07:37:20;;;;;;;25.37;10.10;;;1.90;99.90;;;;;;4995004;28;20271;-67
2023/03/05 07:39:45;;;;;;;29.03;11.13;;;1.90;99.90;;;;;;4999632;28;20285;-67
2023/03/05 07:42:11;;;;;;;27.73;11.13;;;1.90;99.90;;;;;;4994468;28;20214;-67
2023/03/05 07:44:37;;;;;;;43.40;13.30;;;2.00;99.90;;;;;;4983591;28;20179;-67
2023/03/05 07:47:04;;;;;;;26.83;11.00;;;2.00;99.90;;;;;;4993973;28;20500;-67
2023/03/05 07:49:29;;;;;;;31.30;10.07;;;2.00;99.90;;;;;;5000583;28;20564;-68
2023/03/05 07:51:55;;;;;;;32.43;10.43;;;2.10;99.90;;;;;;4994839;28;20501;-67
2023/03/05 07:54:20;;;;;;;26.87;9.50;;;2.10;99.90;;;;;;4998627;28;20645;-67
2023/03/05 07:56:46;;;;;;;20.90;9.60;;;2.10;99.90;;;;;;4995714;28;20179;-67
2023/03/05 07:59:12;;;;;;;21.77;10.70;;;2.10;99.90;;;;;;4998211;28;20246;-67
2023/03/05 08:01:38;;;;;;;25.00;9.60;;;2.20;99.90;;;;;;4995414;28;20661;-67
2023/03/05 08:04:04;;;;;;;27.63;9.80;;;2.20;99.90;;;;;;4998382;28;20423;-67
2023/03/05 08:06:30;;;;;;;27.50;10.00;;;2.30;99.90;;;;;;4996746;28;20219;-67
2023/03/05 08:08:56;;;;;;;22.57;9.80;;;2.30;99.90;;;;;;4999985;28;20430;-67
2023/03/05 08:11:22;;;;;;;19.43;8.80;;;2.30;99.90;;;;;;4996878;28;20264;-67
2023/03/05 08:13:48;;;;;;;23.57;11.00;;;2.40;99.90;;;;;;4997081;28;20422;-67
2023/03/05 08:16:19;;;;;;;19.60;9.37;;;2.40;99.90;;;;;;4997969;28;20187;-67
2023/03/05 08:18:45;;;;;;;38.50;10.80;;;2.60;99.90;;;;;;4999067;28;20187;-67
2023/03/05 08:21:28;;;;;;;30.60;10.70;;;2.40;99.90;;;;;;4993417;28;20427;-67
2023/03/05 08:23:57;;;;;;;27.27;9.80;;;2.50;99.90;;;;;;4996120;28;20462;-67
2023/03/05 08:26:26;;;;;;;25.37;9.63;;;2.50;99.90;;;;;;4994030;28;20582;-67
2023/03/05 08:28:52;;;;;;;23.70;9.57;;;2.60;99.90;;;;;;4992767;28;20425;-68
2023/03/05 08:31:20;;;;;;;18.07;7.57;;;2.60;99.90;;;;;;4993909;28;20414;-68
2023/03/05 08:33:46;;;;;;;25.20;10.03;;;2.60;99.90;;;;;;4989040;28;20532;-66
2023/03/05 08:36:12;;;;;;;30.60;10.63;;;2.60;99.90;;;;;;4995903;28;20446;-66
2023/03/05 08:38:38;;;;;;;30.07;10.20;;;2.70;99.90;;;;;;4997679;28;20896;-66
2023/03/05 08:41:04;;;;;;;27.07;10.87;;;2.70;99.90;;;;;;4995486;28;20256;-66
2023/03/05 08:43:30;;;;;;;35.30;9.10;;;2.60;99.90;;;;;;4997859;28;20710;-66
2023/03/05 08:45:56;;;;;;;29.73;9.00;;;2.60;99.90;;;;;;4995723;28;20537;-69
2023/03/05 08:48:22;;;;;;;23.60;8.87;;;2.70;99.90;;;;;;4995420;28;20644;-68
2023/03/05 08:50:48;;;;;;;16.70;7.97;;;2.60;99.90;;;;;;4995141;28;20415;-68
2023/03/05 08:53:14;;;;;;;23.33;9.07;;;2.70;99.90;;;;;;4995161;28;20527;-66
2023/03/05 08:55:40;;;;;;;18.77;9.67;;;2.70;99.90;;;;;;4993605;28;20427;-66
2023/03/05 08:58:05;;;;;;;22.97;8.40;;;2.70;99.90;;;;;;4997703;28;20632;-68
2023/03/05 09:00:31;;;;;;;19.97;8.33;;;2.80;99.90;;;;;;4993719;28;20199;-68
2023/03/05 09:02:56;;;;;;;22.37;8.47;;;2.90;99.90;;;;;;4997831;28;20180;-66
2023/03/05 09:05:22;;;;;;;16.70;9.70;;;3.00;99.90;;;;;;4994301;28;20184;-66
2023/03/05 09:07:48;;;;;;;20.97;8.03;;;3.00;99.90;;;;;;4994974;28;20180;-66
2023/03/05 09:10:13;;;;;;;21.40;9.60;;;3.10;99.90;;;;;;4995458;28;20203;-66
2023/03/05 09:12:40;;;;;;;21.30;9.87;;;3.10;99.90;;;;;;4995586;28;20504;-66
2023/03/05 09:15:07;;;;;;;18.50;8.27;;;3.20;99.90;;;;;;4995547;28;20207;-66
2023/03/05 09:17:37;;;;;;;20.83;8.50;;;3.30;99.90;;;;;;4996809;28;20434;-68
2023/03/05 09:20:05;;;;;;;25.80;11.53;;;3.40;99.90;;;;;;4996196;28;20423;-68
2023/03/05 09:22:31;;;;;;;15.53;8.40;;;3.50;99.90;;;;;;4994779;28;20503;-68
2023/03/05 09:24:57;;;;;;;17.43;7.77;;;3.60;99.90;;;;;;4992375;28;20501;-68
2023/03/05 09:27:23;;;;;;;18.80;8.60;;;3.60;99.90;;;;;;4995025;28;20509;-68
2023/03/05 09:29:49;;;;;;;17.87;8.17;;;3.60;99.90;;;;;;4996446;28;20496;-68
2023/03/05 09:32:14;;;;;;;17.77;7.67;;;3.60;99.90;;;;;;4996055;28;20740;-68
2023/03/05 09:34:40;;;;;;;22.03;8.43;;;3.50;99.90;;;;;;4992996;28;20423;-68
2023/03/05 09:37:07;;;;;;;18.20;7.10;;;3.60;99.90;;;;;;4997675;28;20191;-68
2023/03/05 09:39:32;;;;;;;19.70;8.40;;;3.70;99.90;;;;;;4994345;28;20220;-68
2023/03/05 09:42:14;;;;;;;14.70;6.70;;;3.70;99.90;;;;;;4997373;28;20959;-68
2023/03/05 09:44:54;;;;;;;21.03;9.50;;;3.80;99.90;;;;;;4993903;28;20624;-68
2023/03/05 09:48:03;;;;;;;14.73;7.13;;;3.80;99.90;;;;;;4991903;28;20963;-68
2023/03/05 09:50:34;;;;;;;15.37;7.20;;;3.90;99.90;;;;;;4987778;28;20457;-68
2023/03/05 09:53:06;;;;;;;21.70;8.27;;;4.00;99.90;;;;;;4996818;28;20422;-68
2023/03/05 09:55:39;;;;;;;17.47;8.23;;;4.10;99.90;;;;;;4991238;28;20430;-68
2023/03/05 09:58:21;;;;;;;22.50;7.87;;;4.20;99.90;;;;;;4992282;28;20953;-68
2023/03/05 10:00:56;;;;;;;23.93;9.63;;;4.20;99.90;;;;;;4993900;28;20500;-68
2023/03/05 10:03:30;;;;;;;16.37;8.07;;;4.10;99.90;;;;;;4993965;28;20411;-68
2023/03/05 10:06:22;;;;;;;18.40;9.30;;;4.20;99.90;;;;;;4996924;28;20962;-68
2023/03/05 10:09:08;;;;;;;19.23;7.20;;;4.30;99.90;;;;;;4988742;28;20421;-68
2023/03/05 10:11:36;;;;;;;21.30;8.57;;;4.30;99.90;;;;;;4994541;28;20892;-68
2023/03/05 10:14:02;;;;;;;24.83;9.10;;;4.40;99.90;;;;;;4995914;28;20914;-68
2023/03/05 10:16:40;;;;;;;24.50;9.50;;;4.30;99.90;;;;;;4987446;28;20438;-68
2023/03/05 10:19:20;;;;;;;18.47;7.00;;;4.30;99.90;;;;;;4997483;28;20742;-68
2023/03/05 10:22:08;;;;;;;16.17;7.77;;;4.30;99.90;;;;;;4987457;28;20450;-68
2023/03/05 10:24:55;;;;;;;19.33;8.93;;;4.30;99.90;;;;;;4974736;28;20438;-68
2023/03/05 10:27:40;;;;;;;16.33;8.70;;;4.30;99.90;;;;;;4994102;28;20466;-69
2023/03/05 10:30:24;;;;;;;33.97;8.10;;;4.10;99.90;;;;;;4996683;28;20779;-68
2023/03/05 10:33:11;;;;;;;24.10;8.70;;;4.10;99.90;;;;;;4989097;28;20403;-68
2023/03/05 10:36:12;;;;;;;22.67;9.57;;;4.10;99.90;;;;;;4992550;28;20538;-68
2023/03/05 10:38:40;;;;;;;18.00;6.87;;;4.20;99.90;;;;;;4919026;28;20427;-68
2023/03/05 10:41:24;;;;;;;17.70;6.67;;;4.10;99.90;;;;;;4993986;28;20431;-68
2023/03/05 10:44:00;;;;;;;20.27;7.37;;;4.10;99.90;;;;;;4993865;28;20427;-68
2023/03/05 10:46:33;;;;;;;15.00;7.37;;;4.10;99.90;;;;;;4991790;28;20545;-67
2023/03/05 10:49:13;;;;;;;25.60;8.90;;;4.20;99.90;;;;;;4994168;28;20969;-67
2023/03/05 10:51:47;;;;;;;17.23;8.77;;;4.20;99.90;;;;;;4988838;28;20427;-67
2023/03/05 10:54:25;;;;;;;19.77;9.37;;;4.10;99.90;;;;;;4996096;28;20422;-67
2023/03/05 10:57:22;;;;;;;19.33;8.33;;;4.00;99.90;;;;;;4996969;28;21197;-67
2023/03/05 11:00:06;;;;;;;18.13;8.70;;;3.90;99.90;;;;;;4991707;28;20491;-67
2023/03/05 11:02:33;;;;;;;22.53;8.73;;;3.90;99.90;;;;;;4997539;28;20415;-67
2023/03/05 11:04:59;;;;;;;28.17;9.50;;;3.80;99.90;;;;;;4996219;28;20473;-66
2023/03/05 11:07:24;;;;;;;16.60;7.10;;;3.80;99.90;;;;;;4997967;28;20466;-66
2023/03/05 11:10:02;;;;;;;16.90;7.10;;;3.80;99.90;;;;;;4997712;28;20561;-67
2023/03/05 11:12:31;;;;;;;16.50;7.10;;;3.70;99.90;;;;;;4996946;28;20183;-68
2023/03/05 11:15:08;;;;;;;12.57;6.40;;;3.70;99.90;;;;;;4997474;28;20427;-66
2023/03/05 11:17:37;;;;;;;17.87;9.40;;;3.80;99.90;;;;;;4993919;28;20417;-67
2023/03/05 11:20:27;;;;;;;18.57;8.40;;;3.90;99.90;;;;;;4997894;28;20411;-66
2023/03/05 11:23:11;;;;;;;15.60;8.03;;;3.90;99.90;;;;;;4993525;28;20590;-66
2023/03/05 11:25:53;;;;;;;19.57;7.80;;;3.90;99.90;;;;;;4992151;28;20470;-66
2023/03/05 11:28:29;;;;;;;14.50;7.63;;;4.00;99.90;;;;;;4999823;28;20437;-66
2023/03/05 11:30:59;;;;;;;29.30;7.90;;;3.90;99.90;;;;;;4997124;28;20477;-67
2023/03/05 11:33:25;;;;;;;20.47;7.77;;;3.90;99.90;;;;;;4995467;28;20545;-67
2023/03/05 11:36:08;;;;;;;21.43;9.00;;;3.90;99.90;;;;;;4997048;28;20442;-67
2023/03/05 11:38:45;;;;;;;18.90;9.63;;;3.80;99.90;;;;;;4991863;28;20479;-67
2023/03/05 11:41:12;;;;;;;22.37;8.07;;;3.80;99.90;;;;;;4992582;28;20478;-67
2023/03/05 11:43:40;;;;;;;25.87;9.17;;;3.70;99.90;;;;;;4995952;28;20415;-67
2023/03/05 11:46:09;;;;;;;16.80;7.20;;;3.70;99.90;;;;;;4997637;28;20514;-67
2023/03/05 11:48:37;;;;;;;18.93;6.17;;;3.70;99.90;;;;;;4997480;28;20426;-67
2023/03/05 11:51:14;;;;;;;20.27;8.47;;;3.60;99.90;;;;;;4998840;28;20782;-67
2023/03/05 11:53:42;;;;;;;14.33;6.30;;;3.60;99.90;;;;;;4997546;28;20863;-67
2023/03/05 11:56:16;;;;;;;12.47;5.90;;;3.50;99.90;;;;;;4997748;28;20965;-66
2023/03/05 11:59:11;;;;;;;16.27;7.13;;;3.50;99.90;;;;;;4992411;28;20460;-69
2023/03/05 12:01:45;;;;;;;14.90;7.80;;;3.50;99.90;;;;;;4994127;28;20522;-68
2023/03/05 12:04:11;;;;;;;25.90;8.10;;;3.60;99.90;;;;;;4999824;28;20417;-68
2023/03/05 12:06:43;;;;;;;13.60;6.37;;;3.50;99.90;;;;;;4996882;28;20470;-68
2023/03/05 12:09:32;;;;;;;31.27;9.27;;;3.60;99.90;;;;;;4996959;28;20179;-68
2023/03/05 12:12:29;;;;;;;19.67;7.20;;;3.50;99.90;;;;;;4984762;28;20430;-68
2023/03/05 12:15:02;;;;;;;16.17;7.53;;;3.50;99.90;;;;;;4993942;28;20776;-68
2023/03/05 12:18:02;;;;;;;24.30;7.83;;;3.50;99.90;;;;;;5000027;28;20734;-68
2023/03/05 12:20:36;;;;;;;18.07;7.13;;;3.50;99.90;;;;;;4995739;28;20419;-68
2023/03/05 12:23:02;;;;;;;21.20;7.67;;;3.40;99.90;;;;;;4992830;28;20821;-68
2023/03/05 12:25:43;;;;;;;19.57;7.50;;;3.40;99.90;;;;;;4994584;28;20732;-68
2023/03/05 12:28:36;;;;;;;20.50;6.90;;;3.30;99.90;;;;;;4997700;28;20182;-67
2023/03/05 12:31:34;;;;;;;18.27;7.73;;;3.30;99.90;;;;;;4995318;28;20494;-67
2023/03/05 12:34:37;;;;;;;16.10;7.20;;;3.30;99.90;;;;;;4991981;28;20892;-67
2023/03/05 12:37:24;;;;;;;16.43;8.10;;;3.20;99.90;;;;;;4991111;28;20722;-68
2023/03/05 12:40:07;;;;;;;19.90;7.77;;;3.20;99.90;;;;;;4996738;28;20854;-66
2023/03/05 12:42:32;;;;;;;21.50;9.23;;;3.20;99.90;;;;;;4988988;28;20418;-66
2023/03/05 12:45:10;;;;;;;16.83;8.17;;;3.10;99.90;;;;;;4999565;28;20418;-66
2023/03/05 12:48:10;;;;;;;23.67;9.80;;;3.10;99.90;;;;;;4988416;28;20257;-68
2023/03/05 12:50:38;;;;;;;20.23;9.13;;;3.10;99.90;;;;;;4946558;28;20526;-66
2023/03/05 12:53:10;;;;;;;21.00;9.03;;;3.10;99.90;;;;;;4998034;28;20418;-68